createdAt,value
2018-07-08T00:00:42.364Z,76.34
2018-07-08T00:03:12.127Z,76.42
2018-07-08T00:05:41.857Z,77.00
2018-07-08T00:08:11.603Z,76.96
2018-07-08T00:10:45.743Z,77.58
2018-07-08T00:13:15.462Z,78.48
2018-07-08T00:15:45.184Z,78.28
2018-07-08T00:18:15.221Z,78.40
2018-07-08T00:20:45.073Z,78.22
2018-07-08T00:23:15.186Z,78.43
2018-07-08T00:25:45.216Z,79.02
2018-07-08T00:28:14.953Z,79.09
2018-07-08T00:30:44.862Z,78.74
2018-07-08T00:33:14.623Z,79.63
2018-07-08T00:35:44.286Z,80.07
2018-07-08T00:38:14.224Z,79.61
2018-07-08T00:40:43.998Z,80.85
2018-07-08T00:43:13.702Z,81.26
2018-07-08T00:45:43.448Z,81.33
2018-07-08T00:48:13.136Z,81.33
2018-07-08T00:50:42.813Z,81.82
2018-07-08T00:53:12.569Z,81.46
2018-07-08T00:55:42.274Z,81.36
2018-07-08T00:58:11.944Z,81.51
2018-07-08T01:00:41.736Z,81.32
2018-07-08T01:03:11.407Z,80.74
2018-07-08T01:05:41.186Z,80.54
2018-07-08T01:08:11.826Z,81.08
2018-07-08T01:10:41.505Z,80.85
2018-07-08T01:13:11.203Z,81.89
2018-07-08T01:15:40.967Z,81.75
2018-07-08T01:18:10.769Z,82.40
2018-07-08T01:20:40.536Z,82.90
2018-07-08T01:23:10.210Z,82.92
2018-07-08T01:25:56.685Z,83.38
2018-07-08T01:28:26.335Z,83.63
2018-07-08T01:30:56.059Z,83.40
2018-07-08T01:33:25.769Z,83.66
2018-07-08T01:35:55.582Z,83.68
2018-07-08T01:38:25.302Z,83.71
2018-07-08T01:40:55.109Z,83.54
2018-07-08T01:43:24.919Z,83.44
2018-07-08T01:45:55.246Z,83.56
2018-07-08T01:48:24.995Z,84.30
2018-07-08T01:50:54.410Z,84.50
2018-07-08T01:53:25.045Z,83.83
2018-07-08T01:55:54.802Z,83.98
2018-07-08T01:58:24.682Z,84.33
2018-07-08T02:00:54.377Z,85.33
2018-07-08T02:03:24.095Z,85.30
2018-07-08T02:05:54.050Z,85.62
2018-07-08T02:08:23.768Z,86.00
2018-07-08T02:10:53.517Z,86.07
2018-07-08T02:13:23.310Z,86.16
2018-07-08T02:15:54.030Z,86.67
2018-07-08T02:18:23.819Z,87.04
2018-07-08T02:20:53.721Z,86.77
2018-07-08T02:23:23.461Z,87.03
2018-07-08T02:25:52.944Z,87.54
2018-07-08T02:28:22.777Z,88.28
2018-07-08T02:30:52.489Z,87.57
2018-07-08T02:33:22.293Z,88.04
2018-07-08T02:35:52.080Z,87.73
2018-07-08T02:38:21.795Z,88.01
2018-07-08T02:40:51.685Z,87.97
2018-07-08T02:43:21.499Z,88.87
2018-07-08T02:45:54.234Z,89.36
2018-07-08T02:48:24.050Z,89.33
2018-07-08T02:50:53.797Z,88.51
2018-07-08T02:53:23.553Z,88.44
2018-07-08T02:55:53.202Z,88.72
2018-07-08T02:58:22.881Z,89.23
2018-07-08T03:00:59.098Z,89.58
2018-07-08T03:03:29.836Z,89.18
2018-07-08T03:05:59.565Z,89.18
2018-07-08T03:08:29.242Z,89.26
2018-07-08T03:10:59.185Z,89.67
2018-07-08T03:13:28.898Z,89.39
2018-07-08T03:15:58.813Z,89.52
2018-07-08T03:18:28.542Z,89.52
2018-07-08T03:20:58.248Z,90.34
2018-07-08T03:23:27.947Z,90.50
2018-07-08T03:25:57.609Z,90.79
2018-07-08T03:28:27.509Z,91.36
2018-07-08T03:30:57.197Z,91.40
2018-07-08T03:33:26.924Z,91.66
2018-07-08T03:35:56.571Z,91.27
2018-07-08T03:38:26.259Z,91.22
2018-07-08T03:40:56.057Z,91.27
2018-07-08T03:43:25.721Z,91.41
2018-07-08T03:45:56.092Z,91.53
2018-07-08T03:48:25.806Z,91.93
2018-07-08T03:50:55.572Z,91.75
2018-07-08T03:53:25.244Z,91.84
2018-07-08T03:55:54.904Z,92.09
2018-07-08T03:58:24.577Z,91.67
2018-07-08T04:00:54.265Z,92.13
2018-07-08T04:03:23.966Z,92.45
2018-07-08T04:05:53.866Z,92.24
2018-07-08T04:08:23.564Z,92.26
2018-07-08T04:10:53.555Z,91.75
2018-07-08T04:13:23.488Z,92.54
2018-07-08T04:15:53.180Z,92.56
2018-07-08T04:18:22.916Z,92.09
2018-07-08T04:20:52.583Z,91.77
2018-07-08T04:23:22.293Z,91.78
2018-07-08T04:25:51.954Z,92.01
2018-07-08T04:28:21.680Z,91.81
2018-07-08T04:30:51.373Z,91.09
2018-07-08T04:33:21.127Z,90.75
2018-07-08T04:35:50.845Z,89.87
2018-07-08T04:38:20.781Z,89.87
2018-07-08T04:40:50.545Z,88.45
2018-07-08T04:43:20.270Z,88.31
2018-07-08T04:45:49.912Z,87.35
2018-07-08T04:48:19.609Z,87.02
2018-07-08T04:50:49.308Z,87.46
2018-07-08T04:53:18.969Z,86.60
2018-07-08T04:55:48.626Z,86.73
2018-07-08T04:58:18.432Z,87.46
2018-07-08T05:00:48.157Z,86.84
2018-07-08T05:03:17.932Z,86.19
2018-07-08T05:05:47.637Z,85.82
2018-07-08T05:08:17.290Z,85.53
2018-07-08T05:10:47.053Z,84.56
2018-07-08T05:13:16.719Z,84.83
2018-07-08T05:15:46.423Z,83.34
2018-07-08T05:18:16.204Z,82.59
2018-07-08T05:20:45.942Z,81.17
2018-07-08T05:23:15.652Z,81.82
2018-07-08T05:25:45.481Z,81.10
2018-07-08T05:28:15.197Z,80.36
2018-07-08T05:30:44.957Z,81.00
2018-07-08T05:33:14.703Z,79.91
2018-07-08T05:35:44.515Z,79.62
2018-07-08T05:38:14.118Z,79.13
2018-07-08T05:40:43.790Z,77.48
2018-07-08T05:43:13.450Z,77.42
2018-07-08T05:45:43.159Z,77.84
2018-07-08T05:48:12.828Z,77.80
2018-07-08T05:50:42.646Z,76.01
2018-07-08T05:53:12.320Z,74.39
2018-07-08T05:55:42.015Z,73.75
2018-07-08T05:58:11.740Z,75.39
2018-07-08T06:00:41.475Z,74.46
2018-07-08T06:03:11.198Z,74.78
2018-07-08T06:05:40.973Z,73.46
2018-07-08T06:08:10.652Z,74.33
2018-07-08T06:10:40.538Z,73.25
2018-07-08T06:13:10.294Z,72.25
2018-07-08T06:15:39.991Z,73.54
2018-07-08T06:18:09.859Z,73.19
2018-07-08T06:20:39.906Z,72.06
2018-07-08T06:23:09.685Z,72.14
2018-07-08T06:25:39.436Z,71.89
2018-07-08T06:28:09.209Z,71.92
2018-07-08T06:30:39.141Z,71.65
2018-07-08T06:33:08.852Z,70.63
2018-07-08T06:35:38.635Z,69.50
2018-07-08T06:38:08.424Z,67.82
2018-07-08T06:40:38.189Z,67.90
2018-07-08T06:43:07.951Z,67.48
2018-07-08T06:45:37.729Z,66.31
2018-07-08T06:48:07.431Z,65.80
2018-07-08T06:50:37.178Z,65.45
2018-07-08T06:53:07.084Z,65.72
2018-07-08T06:55:36.867Z,63.04
2018-07-08T06:58:06.587Z,61.66
2018-07-08T07:00:36.619Z,62.10
2018-07-08T07:03:06.457Z,60.80
2018-07-08T07:05:36.294Z,58.22
2018-07-08T07:08:07.210Z,58.51
2018-07-08T07:10:37.979Z,57.28
2018-07-08T07:13:07.861Z,53.35
2018-07-08T07:15:37.578Z,52.66
2018-07-08T07:18:07.510Z,53.40
2018-07-08T07:20:37.302Z,50.65
2018-07-08T07:23:07.147Z,50.62
2018-07-08T07:25:36.939Z,46.83
2018-07-08T07:28:06.893Z,47.13
2018-07-08T07:30:36.912Z,44.85
2018-07-08T07:33:06.692Z,44.42
2018-07-08T07:35:36.494Z,44.58
2018-07-08T07:38:06.738Z,40.43
2018-07-08T07:40:36.569Z,39.62
2018-07-08T07:43:06.323Z,37.63
2018-07-08T07:45:36.067Z,38.74
2018-07-08T07:48:06.534Z,37.57
2018-07-08T07:50:36.380Z,38.30
2018-07-08T07:53:06.335Z,35.24
2018-07-08T07:55:36.057Z,35.89
2018-07-08T07:58:05.795Z,34.88
2018-07-08T08:00:35.513Z,35.48
2018-07-08T08:03:05.365Z,38.31
2018-07-08T08:05:35.133Z,38.10
2018-07-08T08:08:04.879Z,36.07
2018-07-08T08:10:34.584Z,35.61
2018-07-08T08:13:04.472Z,38.91
2018-07-08T08:15:34.202Z,38.28
2018-07-08T08:18:04.051Z,37.74
2018-07-08T08:20:33.811Z,39.00
2018-07-08T08:23:03.546Z,38.72
2018-07-08T08:25:33.337Z,39.87
2018-07-08T08:28:03.051Z,41.89
2018-07-08T08:30:32.981Z,40.18
2018-07-08T08:33:02.699Z,40.58
2018-07-08T08:35:32.393Z,41.43
2018-07-08T08:38:02.085Z,40.00
2018-07-08T08:40:31.878Z,36.34
2018-07-08T08:43:01.604Z,38.44
2018-07-08T08:45:31.505Z,35.80
2018-07-08T08:48:01.108Z,35.30
2018-07-08T08:50:30.854Z,34.87
2018-07-08T08:53:00.510Z,34.94
2018-07-08T08:55:30.240Z,34.29
2018-07-08T08:57:59.906Z,33.53
2018-07-08T09:00:29.713Z,32.33
2018-07-08T09:02:59.446Z,31.71
2018-07-08T09:05:29.117Z,31.43
2018-07-08T09:07:58.822Z,31.50
2018-07-08T09:10:28.205Z,31.97
2018-07-08T09:12:57.886Z,28.71
2018-07-08T09:15:27.562Z,29.40
2018-07-08T09:17:57.276Z,30.06
2018-07-08T09:20:27.030Z,29.08
2018-07-08T09:22:56.714Z,28.59
2018-07-08T09:25:33.009Z,27.59
2018-07-08T09:28:02.701Z,31.47
2018-07-08T09:30:32.375Z,30.89
2018-07-08T09:33:02.084Z,29.14
2018-07-08T09:35:31.853Z,29.46
2018-07-08T09:38:01.561Z,29.60
2018-07-08T09:40:31.314Z,30.42
2018-07-08T09:43:01.355Z,27.78
2018-07-08T09:45:31.138Z,27.95
2018-07-08T09:48:00.951Z,30.41
2018-07-08T09:50:30.614Z,30.00
2018-07-08T09:53:00.362Z,28.07
2018-07-08T09:55:30.126Z,24.98
2018-07-08T09:57:59.765Z,25.42
2018-07-08T10:00:29.471Z,27.76
2018-07-08T10:02:59.216Z,29.38
2018-07-08T10:05:29.014Z,27.60
2018-07-08T10:07:58.882Z,27.98
2018-07-08T10:10:28.710Z,25.05
2018-07-08T10:12:58.738Z,28.73
2018-07-08T10:15:28.503Z,27.78
2018-07-08T10:17:59.286Z,26.81
2018-07-08T10:20:29.085Z,26.11
2018-07-08T10:23:00.037Z,26.20
2018-07-08T10:25:29.731Z,24.95
2018-07-08T10:28:19.331Z,26.78
2018-07-08T10:30:49.394Z,26.17
2018-07-08T10:33:19.131Z,27.16
2018-07-08T10:35:57.844Z,23.50
2018-07-08T10:38:27.554Z,26.62
2018-07-08T10:40:57.336Z,26.33
2018-07-08T10:43:27.258Z,27.08
2018-07-08T10:45:56.960Z,25.41
2018-07-08T10:48:26.692Z,25.53
2018-07-08T10:50:56.451Z,26.30
2018-07-08T10:53:26.284Z,27.14
2018-07-08T10:55:56.062Z,23.87
2018-07-08T10:58:25.475Z,26.86
2018-07-08T11:00:55.346Z,23.99
2018-07-08T11:03:25.437Z,27.35
2018-07-08T11:05:55.931Z,24.88
2018-07-08T11:08:25.849Z,26.86
2018-07-08T11:10:55.839Z,24.52
2018-07-08T11:13:25.597Z,23.76
2018-07-08T11:15:55.555Z,27.53
2018-07-08T11:18:25.002Z,27.31
2018-07-08T11:20:54.809Z,24.95
2018-07-08T11:23:24.589Z,25.29
2018-07-08T11:25:54.939Z,25.59
2018-07-08T11:28:24.717Z,27.22
2018-07-08T11:30:54.468Z,27.02
2018-07-08T11:33:24.227Z,26.36
2018-07-08T11:35:53.962Z,25.99
2018-07-08T11:38:23.675Z,26.92
2018-07-08T11:40:53.453Z,26.87
2018-07-08T11:43:23.162Z,28.73
2018-07-08T11:45:52.886Z,27.26
2018-07-08T11:48:22.674Z,25.31
2018-07-08T11:50:52.439Z,26.11
2018-07-08T11:53:22.370Z,25.84
2018-07-08T11:55:52.083Z,26.63
2018-07-08T11:58:21.915Z,24.39
2018-07-08T12:00:51.627Z,26.94
2018-07-08T12:03:21.400Z,26.49
2018-07-08T12:05:51.171Z,27.52
2018-07-08T12:08:20.968Z,25.50
2018-07-08T12:10:50.667Z,26.12
2018-07-08T12:13:20.466Z,25.85
2018-07-08T12:15:50.214Z,26.10
2018-07-08T12:18:20.073Z,26.37
2018-07-08T12:20:49.776Z,28.54
2018-07-08T12:23:19.540Z,27.06
2018-07-08T12:25:49.248Z,26.80
2018-07-08T12:28:19.058Z,27.87
2018-07-08T12:30:49.319Z,26.91
2018-07-08T12:33:19.125Z,28.02
2018-07-08T12:35:48.866Z,27.36
2018-07-08T12:38:18.594Z,29.13
2018-07-08T12:40:48.424Z,29.30
2018-07-08T12:43:18.201Z,28.03
2018-07-08T12:45:47.978Z,28.06
2018-07-08T12:48:17.741Z,29.85
2018-07-08T12:50:47.526Z,29.49
2018-07-08T12:53:17.270Z,29.28
2018-07-08T12:55:47.224Z,28.48
2018-07-08T12:58:17.064Z,28.48
2018-07-08T13:00:46.875Z,30.10
2018-07-08T13:03:16.738Z,28.09
2018-07-08T13:05:46.448Z,27.66
2018-07-08T13:08:16.199Z,29.37
2018-07-08T13:10:45.965Z,30.00
2018-07-08T13:13:15.688Z,30.07
2018-07-08T13:15:45.473Z,27.99
2018-07-08T13:18:15.267Z,29.01
2018-07-08T13:20:45.158Z,29.84
2018-07-08T13:23:14.865Z,29.38
2018-07-08T13:25:44.568Z,28.40
2018-07-08T13:28:14.311Z,29.30
2018-07-08T13:30:44.130Z,29.64
2018-07-08T13:33:13.943Z,29.11
2018-07-08T13:35:43.605Z,29.19
2018-07-08T13:38:13.327Z,28.77
2018-07-08T13:40:42.713Z,29.28
2018-07-08T13:43:12.369Z,30.84
2018-07-08T13:45:42.115Z,28.53
2018-07-08T13:48:11.870Z,28.67
2018-07-08T13:50:41.645Z,29.77
2018-07-08T13:53:11.595Z,28.61
2018-07-08T13:55:41.391Z,28.86
2018-07-08T13:58:11.051Z,27.99
2018-07-08T14:00:40.769Z,27.55
2018-07-08T14:03:11.746Z,28.02
2018-07-08T14:05:41.476Z,27.25
2018-07-08T14:08:11.031Z,29.80
2018-07-08T14:10:41.072Z,28.70
2018-07-08T14:13:10.766Z,28.47
2018-07-08T14:15:40.454Z,28.49
2018-07-08T14:18:10.289Z,26.53
2018-07-08T14:20:40.229Z,28.13
2018-07-08T14:23:10.154Z,27.69
2018-07-08T14:25:39.908Z,28.91
2018-07-08T14:28:09.964Z,27.21
2018-07-08T14:30:39.774Z,27.47
2018-07-08T14:33:09.633Z,28.44
2018-07-08T14:35:40.218Z,28.09
2018-07-08T14:38:10.117Z,26.37
2018-07-08T14:40:40.494Z,26.82
2018-07-08T14:43:10.974Z,28.51
2018-07-08T14:45:40.836Z,26.91
2018-07-08T14:48:10.658Z,28.08
2018-07-08T14:50:40.465Z,25.09
2018-07-08T14:53:10.295Z,25.82
2018-07-08T14:55:40.161Z,26.83
2018-07-08T14:58:09.933Z,27.35
2018-07-08T15:00:39.807Z,27.05
2018-07-08T15:03:09.664Z,28.86
2018-07-08T15:05:39.472Z,27.35
2018-07-08T15:08:09.892Z,27.05
2018-07-08T15:10:39.686Z,29.42
2018-07-08T15:13:09.488Z,27.68
2018-07-08T15:15:38.968Z,27.66
2018-07-08T15:18:08.894Z,29.07
2018-07-08T15:20:38.600Z,28.79
2018-07-08T15:23:08.432Z,28.00
2018-07-08T15:25:38.191Z,28.82
2018-07-08T15:28:08.011Z,29.03
2018-07-08T15:30:37.869Z,30.53
2018-07-08T15:33:07.699Z,29.92
2018-07-08T15:35:37.919Z,29.25
2018-07-08T15:38:07.892Z,30.93
2018-07-08T15:40:37.772Z,30.31
2018-07-08T15:43:07.615Z,29.49
2018-07-08T15:45:37.359Z,28.86
2018-07-08T15:48:07.303Z,27.73
2018-07-08T15:50:37.056Z,28.66
2018-07-08T15:53:06.953Z,30.03
2018-07-08T15:55:36.386Z,28.99
2018-07-08T15:58:06.126Z,28.86
2018-07-08T16:00:35.937Z,28.95
2018-07-08T16:03:05.794Z,29.45
2018-07-08T16:05:35.545Z,29.60
2018-07-08T16:08:05.389Z,29.29
2018-07-08T16:10:35.326Z,31.25
2018-07-08T16:13:05.238Z,32.86
2018-07-08T16:15:35.062Z,32.76
2018-07-08T16:18:04.908Z,34.08
2018-07-08T16:20:35.401Z,35.51
2018-07-08T16:23:05.194Z,34.30
2018-07-08T16:25:35.530Z,35.34
2018-07-08T16:28:05.587Z,35.98
2018-07-08T16:30:35.415Z,35.78
2018-07-08T16:33:05.138Z,36.10
2018-07-08T16:35:34.961Z,35.99
2018-07-08T16:38:04.703Z,37.47
2018-07-08T16:40:34.474Z,36.52
2018-07-08T16:43:04.279Z,37.94
2018-07-08T16:45:34.100Z,36.74
2018-07-08T16:48:03.967Z,38.58
2018-07-08T16:50:33.679Z,39.13
2018-07-08T16:53:03.537Z,38.22
2018-07-08T16:55:33.462Z,39.31
2018-07-08T16:58:03.834Z,39.70
2018-07-08T17:00:33.661Z,38.45
2018-07-08T17:03:03.971Z,39.67
2018-07-08T17:05:33.786Z,39.41
2018-07-08T17:08:04.637Z,40.30
2018-07-08T17:10:34.894Z,39.43
2018-07-08T17:13:04.702Z,39.81
2018-07-08T17:15:34.558Z,39.84
2018-07-08T17:18:04.006Z,40.06
2018-07-08T17:20:35.608Z,39.41
2018-07-08T17:23:08.391Z,39.77
2018-07-08T17:25:38.339Z,39.40
2018-07-08T17:28:09.293Z,40.10
2018-07-08T17:30:39.501Z,40.68
2018-07-08T17:33:09.425Z,41.71
2018-07-08T17:35:39.486Z,40.79
2018-07-08T17:38:09.246Z,40.45
2018-07-08T17:40:39.033Z,39.94
2018-07-08T17:43:08.844Z,40.59
2018-07-08T17:45:38.810Z,39.93
2018-07-08T17:48:08.610Z,39.17
2018-07-08T17:50:38.436Z,39.83
2018-07-08T17:53:08.230Z,39.60
2018-07-08T17:55:38.378Z,39.87
2018-07-08T17:58:08.084Z,39.91
2018-07-08T18:00:37.878Z,39.90
2018-07-08T18:03:07.741Z,40.95
2018-07-08T18:05:37.540Z,40.44
2018-07-08T18:08:07.404Z,40.33
2018-07-08T18:10:37.177Z,40.96
2018-07-08T18:13:07.022Z,41.02
2018-07-08T18:15:38.472Z,41.82
2018-07-08T18:18:08.760Z,42.30
2018-07-08T18:20:39.003Z,40.99
2018-07-08T18:23:08.817Z,42.25
2018-07-08T18:25:38.987Z,41.53
2018-07-08T18:28:12.213Z,42.21
2018-07-08T18:30:43.046Z,43.56
2018-07-08T18:33:13.473Z,43.05
2018-07-08T18:35:43.549Z,43.82
2018-07-08T18:38:14.335Z,43.29
2018-07-08T18:40:46.842Z,42.36
2018-07-08T18:43:19.308Z,42.16
2018-07-08T18:45:49.431Z,42.96
2018-07-08T18:48:19.293Z,43.20
2018-07-08T18:50:49.075Z,43.88
2018-07-08T18:53:19.051Z,44.59
2018-07-08T18:55:48.881Z,44.46
2018-07-08T18:58:18.663Z,44.80
2018-07-08T19:00:48.534Z,45.69
2018-07-08T19:03:18.335Z,46.03
2018-07-08T19:05:48.141Z,45.81
2018-07-08T19:08:18.037Z,45.92
2018-07-08T19:10:47.853Z,47.29
2018-07-08T19:13:18.336Z,47.77
2018-07-08T19:15:48.148Z,47.70
2018-07-08T19:18:17.938Z,46.80
2018-07-08T19:20:47.860Z,47.41
2018-07-08T19:23:17.807Z,47.67
2018-07-08T19:25:47.648Z,48.76
2018-07-08T19:28:17.386Z,47.43
2018-07-08T19:30:47.156Z,47.81
2018-07-08T19:33:17.601Z,48.36
2018-07-08T19:35:47.756Z,48.75
2018-07-08T19:38:17.709Z,49.27
2018-07-08T19:40:47.589Z,50.44
2018-07-08T19:43:17.535Z,51.48
2018-07-08T19:45:49.390Z,51.08
2018-07-08T19:48:19.343Z,52.50
2018-07-08T19:50:49.381Z,51.95
2018-07-08T19:53:19.171Z,53.74
2018-07-08T19:55:49.301Z,53.89
2018-07-08T19:58:19.071Z,54.61
2018-07-08T20:00:49.166Z,53.96
2018-07-08T20:03:19.248Z,54.83
2018-07-08T20:05:49.132Z,54.54
2018-07-08T20:08:19.072Z,55.42
2018-07-08T20:10:48.897Z,55.19
2018-07-08T20:13:18.683Z,55.61
2018-07-08T20:15:48.517Z,56.36
2018-07-08T20:18:18.318Z,56.22
2018-07-08T20:20:48.195Z,56.47
2018-07-08T20:23:18.037Z,56.42
2018-07-08T20:25:48.462Z,56.81
2018-07-08T20:28:18.498Z,57.08
2018-07-08T20:30:48.349Z,57.56
2018-07-08T20:33:18.082Z,58.09
2018-07-08T20:35:48.555Z,58.46
2018-07-08T20:38:18.319Z,58.16
2018-07-08T20:40:48.057Z,57.69
2018-07-08T20:43:17.824Z,58.56
2018-07-08T20:45:47.636Z,58.79
2018-07-08T20:48:17.561Z,58.74
2018-07-08T20:50:47.529Z,58.54
2018-07-08T20:53:17.380Z,58.99
2018-07-08T20:55:47.386Z,59.25
2018-07-08T20:58:17.137Z,59.59
2018-07-08T21:00:46.971Z,60.21
2018-07-08T21:03:17.071Z,59.84
2018-07-08T21:05:46.841Z,60.35
2018-07-08T21:08:16.903Z,60.45
2018-07-08T21:10:46.751Z,60.74
2018-07-08T21:13:17.121Z,60.76
2018-07-08T21:15:46.927Z,61.70
2018-07-08T21:18:16.816Z,61.52
2018-07-08T21:20:46.566Z,61.26
2018-07-08T21:23:16.462Z,62.26
2018-07-08T21:25:46.761Z,62.32
2018-07-08T21:28:16.519Z,61.32
2018-07-08T21:30:46.208Z,61.68
2018-07-08T21:33:15.956Z,60.83
2018-07-08T21:35:45.742Z,61.38
2018-07-08T21:38:15.927Z,61.15
2018-07-08T21:40:45.249Z,62.25
2018-07-08T21:43:15.002Z,62.43
2018-07-08T21:45:44.752Z,63.10
2018-07-08T21:48:14.137Z,62.65
2018-07-08T21:50:43.894Z,62.44
2018-07-08T21:53:13.625Z,64.15
2018-07-08T21:55:43.481Z,64.48
2018-07-08T21:58:13.257Z,64.13
2018-07-08T22:01:20.641Z,64.05
2018-07-08T22:03:51.002Z,64.30
2018-07-08T22:06:21.401Z,64.72
2018-07-08T22:08:50.829Z,65.08
2018-07-08T22:11:20.521Z,63.08
2018-07-08T22:13:50.819Z,63.20
2018-07-08T22:16:20.528Z,63.80
2018-07-08T22:18:50.187Z,64.00
2018-07-08T22:21:19.874Z,64.71
2018-07-08T22:23:49.661Z,64.92
2018-07-08T22:26:19.419Z,65.13
2018-07-08T22:28:49.180Z,65.42
2018-07-08T22:31:18.989Z,65.65
2018-07-08T22:33:49.211Z,66.13
2018-07-08T22:36:19.128Z,66.36
2018-07-08T22:38:48.880Z,66.25
2018-07-08T22:41:18.653Z,66.33
2018-07-08T22:43:48.365Z,65.68
2018-07-08T22:46:18.120Z,66.88
2018-07-08T22:48:47.846Z,67.93
2018-07-08T22:51:17.551Z,68.52
2018-07-08T22:53:47.277Z,67.78
2018-07-08T22:56:16.993Z,67.87
2018-07-08T22:58:47.038Z,68.18
2018-07-08T23:01:33.551Z,68.76
2018-07-08T23:04:03.514Z,69.05
2018-07-08T23:06:33.474Z,68.67
2018-07-08T23:09:04.885Z,70.44
2018-07-08T23:11:34.638Z,70.13
2018-07-08T23:14:04.432Z,70.23
2018-07-08T23:16:34.116Z,70.28
2018-07-08T23:19:04.001Z,69.78
2018-07-08T23:21:33.781Z,70.78
2018-07-08T23:24:03.595Z,70.01
2018-07-08T23:26:33.259Z,69.71
2018-07-08T23:29:03.061Z,69.03
2018-07-08T23:31:32.853Z,70.61
2018-07-08T23:34:02.605Z,70.34
2018-07-08T23:36:32.449Z,70.57
2018-07-08T23:39:02.292Z,71.04
2018-07-08T23:41:32.084Z,70.07
2018-07-08T23:44:01.761Z,70.24
2018-07-08T23:46:31.453Z,70.75
2018-07-08T23:49:01.566Z,69.47
2018-07-08T23:51:31.310Z,70.40
2018-07-08T23:54:01.102Z,69.81
2018-07-08T23:56:30.832Z,70.97
2018-07-08T23:59:00.600Z,71.25
